Aérodrome :
LOGIN :

S'inscrire | Disclaimer

   EN    FR    IT 

 










Légende :    VFR   VFR Marginal   IFR   IFR Intensif   IFR Très Intensif
Visi : 
Plafond : 
>= 8 km
>= 3000ft
5 à 8 km
1000 à 3000 ft
1500m à 5 km
500 à 1000 ft
800 à 1500m
200 à 500 ft
< 800m
< 200 ft
Symboles :   Orages  Brouillard  Fortes neiges  Fortes précipitations  Vent > 20 kt
SIGMETs :   Divers  Orages  Givrage  Turbulence  Onde Orograph.  Cendres Volcan.







- Altitude de l'aérodrome : 183 ft
- Code IATA : HAJ


EDDV - Hanover/Langenhagen Int.

DERNIER METAR :
  • 190950Z 27015G25KT 9999 -SHRA FEW014 FEW016CB BKN019 05/03 Q1010 TEMPO 29020G35KT SHRA

METARs EXPIRÉS :
  • 190920Z 27014KT 240V300 9999 -SHRA FEW014 BKN016CB 05/03 Q1010 RESHRA TEMPO 29020G35KT SHRA
  • 190850Z 27014KT 9999 -SHRA FEW014 BKN016CB 05/03 Q1009 TEMPO 29020G35KT SHRA
  • 190820Z 27016KT 9999 -SHRA FEW014 BKN016CB 05/02 Q1009 TEMPO 29020G35KT SHRA
  • 190750Z 27014KT 9999 -SHRA FEW015 SCT029 05/02 Q1009 TEMPO 28015G35KT SHRA BKN020CB

TAF TAF EDDV
Valide du 19 à 06h jusqu'au 20 à 06h UTC


190500Z 1906/2006 26012KT 9999 FEW020CB BKN035
BECMG 1906/1909 27015G25KT
TEMPO 1906/1918 30015G35KT 4000 SHRA SCT008 BKN012CB
PROB30
TEMPO 1909/1914 31020G45KT 2500 TSRAGS
BECMG 1923/2002 27010KT
Pas de NOTAMs connus pour ce terrain.



MET'MAP, la Météo Aéronautique d'un coup d'oeil ! - Copyright ORBIFLY Décembre 2007 - Disclaimer

ORBIFLY MET'MAP TEAM :

Programmation & Développement : Alexandra Zaïnal
Conception & Développement : Baudouin d'Aumeries
Co-Programmation & Développement : Marc-Olivier Méhu
Soutien technique & logistique : Manuel Goepfert

Contact : metmap@orbifly.com




SOURCES & CREDITS :

   NOAA